Time,TemperatureF,DewpointF,PressureIn,WindDirection,WindDirectionDegrees,WindSpeedMPH,WindSpeedGustMPH,Humidity,HourlyPrecipIn,Conditions,Clouds,dailyrainin,SoftwareType,DateUTC
2013-06-12 00:03:00,71.0,68.0,29.89,East,83,5.0,9.0,90,0.00,,,0.01,,2013-06-12 05:03:00,
2013-06-12 00:12:00,71.0,68.0,29.89,East,83,5.0,9.0,90,0.00,,,0.01,,2013-06-12 05:12:00,
2013-06-12 00:22:00,71.0,68.0,29.88,NNE,14,3.0,7.0,90,0.00,,,0.01,,2013-06-12 05:22:00,
2013-06-12 00:32:00,71.0,68.0,29.91,NNE,26,5.0,7.0,91,0.00,,,0.01,,2013-06-12 05:32:00,
2013-06-12 00:42:00,71.0,68.0,29.91,NNE,26,5.0,7.0,91,0.00,,,0.01,,2013-06-12 05:42:00,
2013-06-12 00:52:00,71.0,68.0,29.92,North,350,4.0,9.0,90,0.00,,,0.01,,2013-06-12 05:52:00,
2013-06-12 01:02:00,71.0,68.0,29.92,NNE,12,1.0,7.0,90,0.00,,,0.01,,2013-06-12 06:02:00,
2013-06-12 01:12:00,71.0,68.0,29.92,NNE,12,1.0,7.0,90,0.00,,,0.01,,2013-06-12 06:12:00,
2013-06-12 01:22:00,71.0,68.0,29.92,NNE,12,1.0,7.0,90,0.00,,,0.01,,2013-06-12 06:22:00,
2013-06-12 01:32:00,71.0,68.0,29.92,NNE,12,1.0,7.0,90,0.00,,,0.01,,2013-06-12 06:32:00,
2013-06-12 01:42:00,71.0,68.0,29.92,NNE,12,1.0,7.0,90,0.00,,,0.01,,2013-06-12 06:42:00,
2013-06-12 02:22:00,69.0,67.0,29.85,ESE,105,8.0,13.0,92,0.01,,,0.02,,2013-06-12 07:22:00,
2013-06-12 02:33:00,69.0,67.0,29.81,East,88,8.0,15.0,93,0.01,,,0.02,,2013-06-12 07:33:00,
2013-06-12 02:43:00,69.0,67.0,29.81,ESE,102,8.0,12.0,93,0.01,,,0.02,,2013-06-12 07:43:00,
2013-06-12 02:53:00,69.0,67.0,29.80,NE,52,7.0,17.0,94,0.01,,,0.02,,2013-06-12 07:53:00,
2013-06-12 03:02:00,69.0,67.0,29.81,East,79,6.0,15.0,93,0.01,,,0.02,,2013-06-12 08:02:00,
2013-06-12 03:12:00,70.0,68.0,29.81,ENE,78,5.0,14.0,92,0.02,,,0.03,,2013-06-12 08:12:00,
2013-06-12 03:22:00,70.0,68.0,29.80,East,88,6.0,11.0,92,0.01,,,0.03,,2013-06-12 08:22:00,
2013-06-12 03:33:00,70.0,67.0,29.85,NNE,20,1.0,11.0,91,0.01,,,0.03,,2013-06-12 08:33:00,
2013-06-12 03:43:00,70.0,68.0,29.87,NNE,13,0.0,4.0,92,0.01,,,0.03,,2013-06-12 08:43:00,
2013-06-12 03:53:00,70.0,68.0,29.89,North,5,0.0,3.0,92,0.01,,,0.03,,2013-06-12 08:53:00,
2013-06-12 04:01:00,70.0,68.0,29.91,North,5,0.0,0.0,93,0.01,,,0.03,,2013-06-12 09:01:00,
2013-06-12 04:11:00,69.0,67.0,29.92,West,271,0.0,1.0,94,0.00,,,0.03,,2013-06-12 09:11:00,
2013-06-12 04:22:00,69.0,68.0,29.91,WSW,243,0.0,2.0,95,0.00,,,0.03,,2013-06-12 09:22:00,
2013-06-12 04:33:00,68.0,67.0,29.88,ENE,60,3.0,6.0,96,0.00,,,0.03,,2013-06-12 09:33:00,
2013-06-12 04:42:00,68.0,67.0,29.88,NE,48,2.0,8.0,96,0.00,,,0.03,,2013-06-12 09:42:00,
2013-06-12 04:53:00,68.0,67.0,29.86,ENE,78,7.0,10.0,97,0.00,,,0.03,,2013-06-12 09:53:00,
2013-06-12 05:02:00,67.0,66.0,29.76,NE,47,11.0,15.0,97,0.01,,,0.04,,2013-06-12 10:02:00,
2013-06-12 05:11:00,67.0,66.0,29.73,NNE,27,10.0,18.0,97,0.01,,,0.04,,2013-06-12 10:11:00,
2013-06-12 05:23:00,67.0,66.0,29.76,NNE,17,7.0,17.0,97,0.01,,,0.04,,2013-06-12 10:23:00,
2013-06-12 05:33:00,68.0,67.0,29.84,South,171,2.0,9.0,96,0.01,,,0.04,,2013-06-12 10:33:00,
2013-06-12 05:43:00,68.0,67.0,29.84,East,84,4.0,9.0,97,0.01,,,0.04,,2013-06-12 10:43:00,
2013-06-12 05:53:00,68.0,67.0,29.83,ENE,76,4.0,8.0,97,0.01,,,0.04,,2013-06-12 10:53:00,
2013-06-12 06:02:00,68.0,67.0,29.80,ENE,65,2.0,8.0,97,0.00,,,0.04,,2013-06-12 11:02:00,
2013-06-12 06:12:00,68.0,67.0,29.79,East,90,2.0,7.0,97,0.00,,,0.04,,2013-06-12 11:12:00,
2013-06-12 06:24:00,68.0,67.0,29.81,East,90,0.0,1.0,97,0.00,,,0.04,,2013-06-12 11:24:00,
2013-06-12 06:33:00,68.0,67.0,29.83,East,88,0.0,2.0,98,0.00,,,0.04,,2013-06-12 11:33:00,
2013-06-12 06:43:00,68.0,67.0,29.82,NNW,343,1.0,4.0,98,0.00,,,0.04,,2013-06-12 11:43:00,
2013-06-12 06:53:00,68.0,67.0,29.84,NE,40,1.0,4.0,98,0.00,,,0.04,,2013-06-12 11:53:00,
2013-06-12 07:01:00,68.0,67.0,29.84,NE,45,0.0,4.0,98,0.00,,,0.04,,2013-06-12 12:01:00,
2013-06-12 07:11:00,68.0,67.0,29.85,NE,36,0.0,4.0,98,0.00,,,0.04,,2013-06-12 12:11:00,
2013-06-12 07:23:00,68.0,67.0,29.83,East,100,1.0,4.0,98,0.00,,,0.03,,2013-06-12 12:23:00,
2013-06-12 07:33:00,69.0,68.0,29.83,ESE,123,1.0,6.0,98,0.00,,,0.03,,2013-06-12 12:33:00,
2013-06-12 07:42:00,69.0,68.0,29.83,East,85,4.0,7.0,98,0.00,,,0.03,,2013-06-12 12:42:00,
2013-06-12 07:53:00,69.0,68.0,29.82,East,94,2.0,7.0,98,0.00,,,0.03,,2013-06-12 12:53:00,
2013-06-12 08:01:00,70.0,69.0,29.81,East,87,3.0,8.0,97,0.00,,,0.03,,2013-06-12 13:01:00,
2013-06-12 08:12:00,71.0,69.0,29.82,East,98,1.0,9.0,95,0.00,,,0.03,,2013-06-12 13:12:00,
2013-06-12 08:22:00,71.0,69.0,29.82,NE,41,2.0,7.0,94,0.00,,,0.03,,2013-06-12 13:22:00,
2013-06-12 08:32:00,72.0,70.0,29.83,ESE,113,3.0,7.0,92,0.00,,,0.03,,2013-06-12 13:32:00,
2013-06-12 08:43:00,73.0,70.0,29.82,ENE,71,4.0,7.0,91,0.00,,,0.03,,2013-06-12 13:43:00,
2013-06-12 08:53:00,73.0,70.0,29.83,NE,46,3.0,7.0,89,0.01,,,0.04,,2013-06-12 13:53:00,
2013-06-12 09:02:00,73.0,70.0,29.83,East,82,1.0,7.0,89,0.01,,,0.04,,2013-06-12 14:02:00,
2013-06-12 09:11:00,73.0,70.0,29.83,East,92,1.0,4.0,90,0.01,,,0.04,,2013-06-12 14:11:00,
2013-06-12 09:24:00,73.0,70.0,29.83,East,92,1.0,4.0,90,0.01,,,0.04,,2013-06-12 14:24:00,
2013-06-12 09:33:00,73.0,70.0,29.83,SE,130,1.0,4.0,89,0.01,,,0.04,,2013-06-12 14:33:00,
2013-06-12 09:43:00,73.0,70.0,29.84,NE,53,0.0,0.0,90,0.01,,,0.04,,2013-06-12 14:43:00,
2013-06-12 09:53:00,73.0,71.0,29.84,NE,53,0.0,0.0,92,0.00,,,0.04,,2013-06-12 14:53:00,
2013-06-12 10:01:00,73.0,71.0,29.84,NE,53,0.0,0.0,93,0.00,,,0.04,,2013-06-12 15:01:00,
2013-06-12 10:12:00,72.0,70.0,29.84,NE,53,0.0,0.0,93,0.00,,,0.04,,2013-06-12 15:12:00,
2013-06-12 10:23:00,72.0,70.0,29.83,NE,53,1.0,3.0,92,0.00,,,0.04,,2013-06-12 15:23:00,
2013-06-12 10:33:00,72.0,70.0,29.84,NNW,347,2.0,7.0,93,0.00,,,0.04,,2013-06-12 15:33:00,
2013-06-12 10:43:00,70.0,68.0,29.84,West,280,1.0,8.0,92,0.01,,,0.05,,2013-06-12 15:43:00,
2013-06-12 10:52:00,69.0,67.0,29.84,WNW,303,3.0,10.0,92,0.01,,,0.05,,2013-06-12 15:52:00,
2013-06-12 11:01:00,68.0,66.0,29.84,North,5,3.0,11.0,93,0.01,,,0.05,,2013-06-12 16:01:00,
2013-06-12 11:11:00,67.0,66.0,29.83,NNE,19,4.0,9.0,95,0.01,,,0.05,,2013-06-12 16:11:00,
2013-06-12 11:22:00,67.0,66.0,29.83,North,355,2.0,9.0,96,0.01,,,0.05,,2013-06-12 16:22:00,
2013-06-12 11:32:00,68.0,67.0,29.83,North,5,5.0,10.0,96,0.01,,,0.05,,2013-06-12 16:32:00,
2013-06-12 11:43:00,68.0,67.0,29.82,North,355,5.0,11.0,96,0.00,,,0.05,,2013-06-12 16:43:00,
2013-06-12 11:52:00,68.0,67.0,29.83,North,355,5.0,11.0,95,0.00,,,0.05,,2013-06-12 16:52:00,
2013-06-12 12:01:00,68.0,67.0,29.83,NNE,12,4.0,11.0,95,0.00,,,0.05,,2013-06-12 17:01:00,
2013-06-12 12:11:00,68.0,67.0,29.83,ENE,60,5.0,10.0,95,0.00,,,0.05,,2013-06-12 17:11:00,
2013-06-12 12:23:00,68.0,67.0,29.83,North,360,6.0,12.0,96,0.00,,,0.05,,2013-06-12 17:23:00,
2013-06-12 12:33:00,68.0,67.0,29.82,North,10,8.0,14.0,96,0.00,,,0.05,,2013-06-12 17:33:00,
2013-06-12 12:42:00,69.0,68.0,29.81,NNE,19,8.0,13.0,95,0.00,,,0.05,,2013-06-12 17:42:00,
2013-06-12 12:52:00,70.0,68.0,29.82,NE,44,8.0,14.0,93,0.00,,,0.05,,2013-06-12 17:52:00,
2013-06-12 13:02:00,70.0,68.0,29.83,NE,40,7.0,12.0,93,0.00,,,0.05,,2013-06-12 18:02:00,
2013-06-12 13:12:00,70.0,68.0,29.83,NNE,28,5.0,12.0,93,0.00,,,0.05,,2013-06-12 18:12:00,
2013-06-12 13:22:00,71.0,69.0,29.82,NNE,22,7.0,13.0,92,0.00,,,0.05,,2013-06-12 18:22:00,
2013-06-12 13:32:00,71.0,69.0,29.82,NNE,22,7.0,13.0,92,0.00,,,0.05,,2013-06-12 18:32:00,
2013-06-12 13:43:00,72.0,69.0,29.82,North,5,5.0,11.0,91,0.00,,,0.05,,2013-06-12 18:43:00,
2013-06-12 13:53:00,72.0,69.0,29.81,NNE,25,4.0,9.0,90,0.00,,,0.05,,2013-06-12 18:53:00,
2013-06-12 14:01:00,73.0,70.0,29.81,ENE,74,4.0,11.0,89,0.00,,,0.05,,2013-06-12 19:01:00,
2013-06-12 14:11:00,74.0,70.0,29.81,NNE,21,4.0,10.0,88,0.00,,,0.05,,2013-06-12 19:11:00,
2013-06-12 14:22:00,75.0,71.0,29.81,NNE,13,4.0,8.0,87,0.00,,,0.05,,2013-06-12 19:22:00,
2013-06-12 14:32:00,76.0,72.0,29.81,NE,38,3.0,7.0,86,0.00,,,0.05,,2013-06-12 19:32:00,
2013-06-12 14:42:00,76.0,71.0,29.81,NNE,20,2.0,4.0,85,0.00,,,0.05,,2013-06-12 19:42:00,
2013-06-12 14:52:00,76.0,71.0,29.81,NNE,13,3.0,5.0,85,0.00,,,0.05,,2013-06-12 19:52:00,
2013-06-12 15:01:00,76.0,72.0,29.80,NNE,25,1.0,5.0,86,0.00,,,0.05,,2013-06-12 20:01:00,
2013-06-12 15:11:00,76.0,72.0,29.80,ENE,74,0.0,5.0,86,0.00,,,0.05,,2013-06-12 20:11:00,
2013-06-12 15:22:00,76.0,71.0,29.80,East,82,1.0,4.0,85,0.00,,,0.05,,2013-06-12 20:22:00,
2013-06-12 15:32:00,76.0,72.0,29.80,NE,53,1.0,5.0,86,0.00,,,0.05,,2013-06-12 20:32:00,
2013-06-12 15:42:00,76.0,71.0,29.79,ENE,69,1.0,3.0,85,0.00,,,0.05,,2013-06-12 20:42:00,
2013-06-12 15:54:00,76.0,71.0,29.79,ENE,69,0.0,2.0,85,0.00,,,0.05,,2013-06-12 20:54:00,
2013-06-12 16:01:00,77.0,72.0,29.78,SSW,192,1.0,4.0,86,0.00,,,0.05,,2013-06-12 21:01:00,
2013-06-12 16:11:00,78.0,72.0,29.78,SE,144,0.0,4.0,82,0.00,,,0.05,,2013-06-12 21:11:00,
2013-06-12 16:22:00,77.0,72.0,29.78,WSW,254,0.0,2.0,84,0.00,,,0.05,,2013-06-12 21:22:00,
2013-06-12 16:33:00,74.0,70.0,29.79,WNW,296,3.0,11.0,87,0.00,,,0.05,,2013-06-12 21:33:00,
2013-06-12 16:43:00,70.0,68.0,29.79,NNW,331,2.0,16.0,92,0.00,,,0.05,,2013-06-12 21:43:00,
2013-06-12 16:52:00,68.0,66.0,29.79,West,273,2.0,16.0,94,0.00,,,0.05,,2013-06-12 21:52:00,
2013-06-12 17:01:00,67.0,66.0,29.80,West,263,3.0,8.0,96,0.00,,,0.05,,2013-06-12 22:01:00,
2013-06-12 17:11:00,67.0,66.0,29.82,WNW,288,5.0,11.0,97,0.00,,,0.05,,2013-06-12 22:11:00,
2013-06-12 17:22:00,67.0,66.0,29.82,WNW,292,6.0,11.0,96,0.00,,,0.05,,2013-06-12 22:22:00,
2013-06-12 17:32:00,67.0,66.0,29.82,WNW,292,6.0,11.0,96,0.00,,,0.05,,2013-06-12 22:32:00,
2013-06-12 17:43:00,66.0,65.0,29.83,WSW,240,6.0,17.0,97,0.00,,,0.05,,2013-06-12 22:43:00,
2013-06-12 17:52:00,65.0,64.0,29.83,WSW,241,5.0,16.0,98,0.00,,,0.05,,2013-06-12 22:52:00,
2013-06-12 18:02:00,65.0,64.0,29.85,West,281,5.0,14.0,98,0.00,,,0.05,,2013-06-12 23:02:00,
2013-06-12 18:12:00,65.0,64.0,29.85,West,281,5.0,14.0,98,0.00,,,0.05,,2013-06-12 23:12:00,
2013-06-12 18:32:00,63.0,62.0,29.86,West,275,5.0,15.0,97,0.00,,,0.05,,2013-06-12 23:32:00,
2013-06-12 18:42:00,63.0,62.0,29.86,WNW,290,4.0,15.0,98,0.00,,,0.05,,2013-06-12 23:42:00,
2013-06-12 18:53:00,63.0,62.0,29.87,West,281,5.0,16.0,98,0.00,,,0.05,,2013-06-12 23:53:00,
2013-06-12 19:01:00,63.0,62.0,29.87,West,277,3.0,16.0,98,0.00,,,0.05,,2013-06-13 00:01:00,
2013-06-12 19:12:00,62.0,61.0,29.88,West,281,5.0,12.0,98,0.00,,,0.05,,2013-06-13 00:12:00,
2013-06-12 19:22:00,62.0,61.0,29.88,WNW,294,3.0,11.0,98,0.00,,,0.05,,2013-06-13 00:22:00,
2013-06-12 19:32:00,62.0,61.0,29.89,SW,234,3.0,12.0,98,0.00,,,0.05,,2013-06-13 00:32:00,
2013-06-12 19:42:00,62.0,61.0,29.90,WSW,244,5.0,12.0,97,0.01,,,0.06,,2013-06-13 00:42:00,
2013-06-12 19:52:00,62.0,61.0,29.90,WNW,293,3.0,9.0,97,0.01,,,0.06,,2013-06-13 00:52:00,
2013-06-12 20:01:00,62.0,61.0,29.90,WSW,242,3.0,13.0,97,0.01,,,0.06,,2013-06-13 01:01:00,
2013-06-12 20:12:00,61.0,60.0,29.90,WNW,292,3.0,9.0,97,0.01,,,0.06,,2013-06-13 01:12:00,
2013-06-12 20:22:00,62.0,61.0,29.90,NW,304,3.0,9.0,97,0.01,,,0.06,,2013-06-13 01:22:00,
2013-06-12 20:32:00,62.0,61.0,29.90,WSW,254,2.0,8.0,97,0.01,,,0.06,,2013-06-13 01:32:00,
2013-06-12 20:43:00,62.0,61.0,29.90,West,275,3.0,9.0,96,0.01,,,0.06,,2013-06-13 01:43:00,
2013-06-12 20:53:00,62.0,61.0,29.91,West,273,2.0,8.0,96,0.00,,,0.06,,2013-06-13 01:53:00,
2013-06-12 21:02:00,62.0,61.0,31.05,West,272,2.0,8.0,96,0.00,,,0.06,,2013-06-13 02:02:00,
2013-06-12 21:12:00,63.0,62.0,29.91,WSW,238,4.0,9.0,95,0.00,,,0.06,,2013-06-13 02:12:00,
2013-06-12 21:22:00,63.0,62.0,29.91,WSW,238,4.0,9.0,95,0.00,,,0.06,,2013-06-13 02:22:00,
2013-06-12 21:33:00,63.0,61.0,29.93,WSW,258,4.0,15.0,93,0.00,,,0.06,,2013-06-13 02:33:00,
2013-06-12 21:43:00,63.0,61.0,29.93,West,263,5.0,10.0,92,0.00,,,0.06,,2013-06-13 02:43:00,
2013-06-12 21:52:00,63.0,60.0,29.93,West,267,2.0,12.0,91,0.00,,,0.06,,2013-06-13 02:52:00,
2013-06-12 22:02:00,63.0,60.0,29.94,WNW,282,4.0,13.0,91,0.00,,,0.06,,2013-06-13 03:02:00,
2013-06-12 22:12:00,63.0,60.0,29.95,West,277,4.0,9.0,90,0.00,,,0.06,,2013-06-13 03:12:00,
2013-06-12 22:22:00,63.0,59.0,29.96,WSW,252,4.0,11.0,87,0.00,,,0.06,,2013-06-13 03:22:00,
2013-06-12 22:33:00,63.0,58.0,29.97,West,269,4.0,8.0,85,0.00,,,0.06,,2013-06-13 03:33:00,
2013-06-12 22:42:00,63.0,58.0,29.97,WSW,251,4.0,9.0,84,0.00,,,0.06,,2013-06-13 03:42:00,
2013-06-12 22:52:00,63.0,58.0,29.98,West,277,4.0,8.0,84,0.00,,,0.06,,2013-06-13 03:52:00,
2013-06-12 23:01:00,63.0,58.0,29.98,West,277,4.0,8.0,84,0.00,,,0.06,,2013-06-13 04:01:00,
2013-06-12 23:11:00,63.0,59.0,29.98,West,277,5.0,9.0,87,0.00,,,0.06,,2013-06-13 04:11:00,
2013-06-12 23:22:00,64.0,60.0,29.99,West,271,5.0,9.0,87,0.00,,,0.06,,2013-06-13 04:22:00,
2013-06-12 23:32:00,64.0,60.0,30.00,West,269,5.0,11.0,88,0.00,,,0.06,,2013-06-13 04:32:00,
2013-06-12 23:43:00,64.0,60.0,30.00,West,278,6.0,13.0,88,0.00,,,0.06,,2013-06-13 04:43:00,
2013-06-12 23:53:00,64.0,60.0,30.00,West,273,5.0,10.0,87,0.00,,,0.06,,2013-06-13 04:53:00,